Terminal Aerodrome Forecast
Issued by NWS

Home | Current Version | Previous Version | Text Only | Print | Product List | Glossary On
Versions: 1 2 3 4 5 6 7 8 9 10 11 12 13
000
FTUS42 TJSJ 052344
TAFJMZ
TAF
TJMZ 052344Z 0600/0624 11005KT P6SM SCT040
     FM061330 09012KT P6SM FEW030 SCT050
     FM061750 29011KT P6SM VCSH SCT025
     FM062230 10005KT P6SM SCT030
      AMD NOT SKED=

USA.gov is the U.S. government's official web portal to all federal, state and local government web resources and services.